sensor_id;sensor_type;location;lat;lon;timestamp;P1;durP1;ratioP1;P2;durP2;ratioP2
5890;SDS011;2971;52.420;7.080;2023-06-10T00:00:49;7.73;;;5.80;;
5890;SDS011;2971;52.420;7.080;2023-06-10T00:03:15;11.23;;;6.50;;
5890;SDS011;2971;52.420;7.080;2023-06-10T00:05:41;7.80;;;5.70;;
5890;SDS011;2971;52.420;7.080;2023-06-10T00:08:06;8.70;;;6.27;;
5890;SDS011;2971;52.420;7.080;2023-06-10T00:10:36;9.50;;;6.20;;
5890;SDS011;2971;52.420;7.080;2023-06-10T00:13:04;8.97;;;6.00;;
5890;SDS011;2971;52.420;7.080;2023-06-10T00:15:30;8.57;;;5.70;;
5890;SDS011;2971;52.420;7.080;2023-06-10T00:17:55;7.17;;;5.90;;
5890;SDS011;2971;52.420;7.080;2023-06-10T00:20:21;8.80;;;6.00;;
5890;SDS011;2971;52.420;7.080;2023-06-10T00:22:50;9.33;;;6.83;;
5890;SDS011;2971;52.420;7.080;2023-06-10T00:25:16;8.63;;;6.07;;
5890;SDS011;2971;52.420;7.080;2023-06-10T00:27:41;8.43;;;6.07;;
5890;SDS011;2971;52.420;7.080;2023-06-10T00:30:07;8.33;;;6.10;;
5890;SDS011;2971;52.420;7.080;2023-06-10T00:32:33;9.33;;;6.33;;
5890;SDS011;2971;52.420;7.080;2023-06-10T00:35:02;7.63;;;5.57;;
5890;SDS011;2971;52.420;7.080;2023-06-10T00:37:28;6.83;;;6.03;;
5890;SDS011;2971;52.420;7.080;2023-06-10T00:39:54;9.00;;;6.40;;
5890;SDS011;2971;52.420;7.080;2023-06-10T00:42:19;7.40;;;6.23;;
5890;SDS011;2971;52.420;7.080;2023-06-10T00:44:47;9.20;;;5.80;;
5890;SDS011;2971;52.420;7.080;2023-06-10T00:47:13;8.70;;;6.37;;
5890;SDS011;2971;52.420;7.080;2023-06-10T00:49:38;7.43;;;6.43;;
5890;SDS011;2971;52.420;7.080;2023-06-10T00:52:04;8.27;;;6.50;;
5890;SDS011;2971;52.420;7.080;2023-06-10T00:54:30;7.30;;;6.27;;
5890;SDS011;2971;52.420;7.080;2023-06-10T00:56:56;7.07;;;6.00;;
5890;SDS011;2971;52.420;7.080;2023-06-10T00:59:21;10.00;;;6.60;;
5890;SDS011;2971;52.420;7.080;2023-06-10T01:01:47;9.37;;;6.73;;
5890;SDS011;2971;52.420;7.080;2023-06-10T01:04:13;7.60;;;6.30;;
5890;SDS011;2971;52.420;7.080;2023-06-10T01:07:01;7.53;;;6.23;;
5890;SDS011;2971;52.420;7.080;2023-06-10T01:12:46;9.07;;;6.40;;
5890;SDS011;2971;52.420;7.080;2023-06-10T01:14:57;10.37;;;6.43;;
5890;SDS011;2971;52.420;7.080;2023-06-10T01:17:23;8.57;;;6.60;;
5890;SDS011;2971;52.420;7.080;2023-06-10T01:19:55;7.70;;;6.17;;
5890;SDS011;2971;52.420;7.080;2023-06-10T01:22:27;8.67;;;6.50;;
5890;SDS011;2971;52.420;7.080;2023-06-10T01:24:54;7.63;;;6.47;;
5890;SDS011;2971;52.420;7.080;2023-06-10T01:27:23;9.03;;;6.10;;
5890;SDS011;2971;52.420;7.080;2023-06-10T01:29:59;8.97;;;6.97;;
5890;SDS011;2971;52.420;7.080;2023-06-10T01:32:33;8.37;;;7.10;;
5890;SDS011;2971;52.420;7.080;2023-06-10T01:35:02;7.17;;;6.47;;
5890;SDS011;2971;52.420;7.080;2023-06-10T01:37:28;7.97;;;6.97;;
5890;SDS011;2971;52.420;7.080;2023-06-10T01:39:55;10.97;;;7.03;;
5890;SDS011;2971;52.420;7.080;2023-06-10T01:42:23;9.23;;;7.47;;
5890;SDS011;2971;52.420;7.080;2023-06-10T01:44:49;7.47;;;6.43;;
5890;SDS011;2971;52.420;7.080;2023-06-10T01:47:14;10.80;;;6.73;;
5890;SDS011;2971;52.420;7.080;2023-06-10T01:49:40;8.53;;;6.67;;
5890;SDS011;2971;52.420;7.080;2023-06-10T01:52:05;8.43;;;6.40;;
5890;SDS011;2971;52.420;7.080;2023-06-10T01:54:31;12.60;;;6.97;;
5890;SDS011;2971;52.420;7.080;2023-06-10T01:56:56;10.13;;;6.50;;
5890;SDS011;2971;52.420;7.080;2023-06-10T01:59:22;9.40;;;6.60;;
5890;SDS011;2971;52.420;7.080;2023-06-10T02:01:47;8.47;;;6.67;;
5890;SDS011;2971;52.420;7.080;2023-06-10T02:04:12;7.67;;;6.53;;
5890;SDS011;2971;52.420;7.080;2023-06-10T02:06:38;11.70;;;7.07;;
5890;SDS011;2971;52.420;7.080;2023-06-10T02:09:04;9.80;;;6.83;;
5890;SDS011;2971;52.420;7.080;2023-06-10T02:11:29;8.67;;;6.50;;
5890;SDS011;2971;52.420;7.080;2023-06-10T02:13:54;8.70;;;6.90;;
5890;SDS011;2971;52.420;7.080;2023-06-10T02:16:20;9.03;;;7.13;;
5890;SDS011;2971;52.420;7.080;2023-06-10T02:18:46;8.80;;;7.03;;
5890;SDS011;2971;52.420;7.080;2023-06-10T02:21:12;8.00;;;7.20;;
5890;SDS011;2971;52.420;7.080;2023-06-10T02:23:37;8.20;;;7.10;;
5890;SDS011;2971;52.420;7.080;2023-06-10T02:26:03;7.40;;;6.70;;
5890;SDS011;2971;52.420;7.080;2023-06-10T02:28:29;8.90;;;6.60;;
5890;SDS011;2971;52.420;7.080;2023-06-10T02:30:54;10.17;;;7.27;;
5890;SDS011;2971;52.420;7.080;2023-06-10T02:33:22;9.17;;;6.90;;
5890;SDS011;2971;52.420;7.080;2023-06-10T02:35:48;7.87;;;7.07;;
5890;SDS011;2971;52.420;7.080;2023-06-10T02:38:13;8.43;;;7.37;;
5890;SDS011;2971;52.420;7.080;2023-06-10T02:40:39;10.57;;;7.30;;
5890;SDS011;2971;52.420;7.080;2023-06-10T02:43:04;8.60;;;7.40;;
5890;SDS011;2971;52.420;7.080;2023-06-10T02:45:30;9.37;;;7.20;;
5890;SDS011;2971;52.420;7.080;2023-06-10T02:47:55;9.27;;;7.40;;
5890;SDS011;2971;52.420;7.080;2023-06-10T02:50:22;9.27;;;7.43;;
5890;SDS011;2971;52.420;7.080;2023-06-10T02:52:48;8.10;;;7.27;;
5890;SDS011;2971;52.420;7.080;2023-06-10T02:55:13;11.00;;;7.90;;
5890;SDS011;2971;52.420;7.080;2023-06-10T02:57:39;11.03;;;7.40;;
5890;SDS011;2971;52.420;7.080;2023-06-10T03:00:05;9.13;;;7.60;;
5890;SDS011;2971;52.420;7.080;2023-06-10T03:02:35;9.70;;;8.13;;
5890;SDS011;2971;52.420;7.080;2023-06-10T03:05:02;10.57;;;7.97;;
5890;SDS011;2971;52.420;7.080;2023-06-10T03:07:27;12.20;;;7.93;;
5890;SDS011;2971;52.420;7.080;2023-06-10T03:09:53;9.43;;;7.87;;
5890;SDS011;2971;52.420;7.080;2023-06-10T03:12:18;11.00;;;8.13;;
5890;SDS011;2971;52.420;7.080;2023-06-10T03:14:43;9.23;;;8.20;;
5890;SDS011;2971;52.420;7.080;2023-06-10T03:17:09;10.33;;;7.87;;
5890;SDS011;2971;52.420;7.080;2023-06-10T03:19:34;9.10;;;8.00;;
5890;SDS011;2971;52.420;7.080;2023-06-10T03:22:12;9.20;;;7.57;;
5890;SDS011;2971;52.420;7.080;2023-06-10T03:24:39;9.20;;;7.97;;
5890;SDS011;2971;52.420;7.080;2023-06-10T03:27:08;9.87;;;7.47;;
5890;SDS011;2971;52.420;7.080;2023-06-10T03:29:35;10.50;;;8.50;;
5890;SDS011;2971;52.420;7.080;2023-06-10T03:32:01;10.23;;;7.40;;
5890;SDS011;2971;52.420;7.080;2023-06-10T03:34:27;10.73;;;8.27;;
5890;SDS011;2971;52.420;7.080;2023-06-10T03:36:52;11.47;;;8.43;;
5890;SDS011;2971;52.420;7.080;2023-06-10T03:39:18;11.47;;;7.77;;
5890;SDS011;2971;52.420;7.080;2023-06-10T03:41:43;12.10;;;8.27;;
5890;SDS011;2971;52.420;7.080;2023-06-10T03:44:09;9.30;;;8.03;;
5890;SDS011;2971;52.420;7.080;2023-06-10T03:46:34;8.67;;;7.23;;
5890;SDS011;2971;52.420;7.080;2023-06-10T03:48:59;13.70;;;8.17;;
5890;SDS011;2971;52.420;7.080;2023-06-10T03:51:29;9.47;;;7.60;;
5890;SDS011;2971;52.420;7.080;2023-06-10T03:53:54;9.23;;;7.27;;
5890;SDS011;2971;52.420;7.080;2023-06-10T03:56:20;10.63;;;7.83;;
5890;SDS011;2971;52.420;7.080;2023-06-10T03:58:45;12.20;;;7.53;;
5890;SDS011;2971;52.420;7.080;2023-06-10T04:01:11;13.20;;;7.80;;
5890;SDS011;2971;52.420;7.080;2023-06-10T04:03:38;10.10;;;8.03;;
5890;SDS011;2971;52.420;7.080;2023-06-10T04:06:04;12.43;;;7.73;;
5890;SDS011;2971;52.420;7.080;2023-06-10T04:08:30;11.10;;;7.87;;
5890;SDS011;2971;52.420;7.080;2023-06-10T04:10:56;10.27;;;7.50;;
5890;SDS011;2971;52.420;7.080;2023-06-10T04:13:22;9.83;;;7.87;;
5890;SDS011;2971;52.420;7.080;2023-06-10T04:15:48;9.63;;;7.63;;
5890;SDS011;2971;52.420;7.080;2023-06-10T04:18:14;10.07;;;7.50;;
5890;SDS011;2971;52.420;7.080;2023-06-10T04:20:40;9.97;;;7.47;;
5890;SDS011;2971;52.420;7.080;2023-06-10T04:23:05;9.63;;;7.30;;
5890;SDS011;2971;52.420;7.080;2023-06-10T04:25:30;12.77;;;7.33;;
5890;SDS011;2971;52.420;7.080;2023-06-10T04:27:56;9.07;;;7.73;;
5890;SDS011;2971;52.420;7.080;2023-06-10T04:30:22;8.63;;;7.00;;
5890;SDS011;2971;52.420;7.080;2023-06-10T04:32:47;8.07;;;6.90;;
5890;SDS011;2971;52.420;7.080;2023-06-10T04:35:13;8.13;;;7.03;;
5890;SDS011;2971;52.420;7.080;2023-06-10T04:37:40;9.00;;;7.20;;
5890;SDS011;2971;52.420;7.080;2023-06-10T04:40:06;9.23;;;7.20;;
5890;SDS011;2971;52.420;7.080;2023-06-10T04:42:32;8.77;;;7.40;;
5890;SDS011;2971;52.420;7.080;2023-06-10T04:44:57;8.00;;;6.90;;
5890;SDS011;2971;52.420;7.080;2023-06-10T04:47:23;10.80;;;7.50;;
5890;SDS011;2971;52.420;7.080;2023-06-10T04:49:48;10.13;;;6.93;;
5890;SDS011;2971;52.420;7.080;2023-06-10T04:52:13;8.77;;;6.63;;
5890;SDS011;2971;52.420;7.080;2023-06-10T04:54:39;10.80;;;7.37;;
5890;SDS011;2971;52.420;7.080;2023-06-10T04:57:05;9.67;;;7.30;;
5890;SDS011;2971;52.420;7.080;2023-06-10T04:59:32;8.97;;;7.10;;
5890;SDS011;2971;52.420;7.080;2023-06-10T05:01:58;9.67;;;7.27;;
5890;SDS011;2971;52.420;7.080;2023-06-10T05:04:24;9.17;;;7.03;;
5890;SDS011;2971;52.420;7.080;2023-06-10T05:06:49;11.30;;;7.30;;
5890;SDS011;2971;52.420;7.080;2023-06-10T05:09:15;8.30;;;6.87;;
5890;SDS011;2971;52.420;7.080;2023-06-10T05:11:40;9.13;;;6.83;;
5890;SDS011;2971;52.420;7.080;2023-06-10T05:14:06;10.23;;;7.00;;
5890;SDS011;2971;52.420;7.080;2023-06-10T05:16:31;11.10;;;7.47;;
5890;SDS011;2971;52.420;7.080;2023-06-10T05:18:57;11.73;;;7.17;;
5890;SDS011;2971;52.420;7.080;2023-06-10T05:21:22;11.87;;;7.27;;
5890;SDS011;2971;52.420;7.080;2023-06-10T05:23:48;9.90;;;6.73;;
5890;SDS011;2971;52.420;7.080;2023-06-10T05:26:13;12.07;;;7.17;;
5890;SDS011;2971;52.420;7.080;2023-06-10T05:28:39;13.90;;;7.30;;
5890;SDS011;2971;52.420;7.080;2023-06-10T05:31:05;8.93;;;6.90;;
5890;SDS011;2971;52.420;7.080;2023-06-10T05:33:30;8.13;;;6.53;;
5890;SDS011;2971;52.420;7.080;2023-06-10T05:35:56;10.83;;;6.97;;
5890;SDS011;2971;52.420;7.080;2023-06-10T05:38:21;11.23;;;6.70;;
5890;SDS011;2971;52.420;7.080;2023-06-10T05:40:47;6.90;;;6.20;;
5890;SDS011;2971;52.420;7.080;2023-06-10T05:43:12;9.93;;;7.07;;
5890;SDS011;2971;52.420;7.080;2023-06-10T05:45:38;8.77;;;6.53;;
5890;SDS011;2971;52.420;7.080;2023-06-10T05:48:05;8.10;;;6.40;;
5890;SDS011;2971;52.420;7.080;2023-06-10T05:50:30;9.20;;;6.20;;
5890;SDS011;2971;52.420;7.080;2023-06-10T05:52:56;9.73;;;6.80;;
5890;SDS011;2971;52.420;7.080;2023-06-10T05:55:22;8.20;;;6.30;;
5890;SDS011;2971;52.420;7.080;2023-06-10T05:57:48;11.83;;;6.93;;
5890;SDS011;2971;52.420;7.080;2023-06-10T06:00:23;10.33;;;6.60;;
5890;SDS011;2971;52.420;7.080;2023-06-10T06:02:49;8.27;;;6.53;;
5890;SDS011;2971;52.420;7.080;2023-06-10T06:05:15;7.53;;;5.70;;
5890;SDS011;2971;52.420;7.080;2023-06-10T06:07:41;7.57;;;6.20;;
5890;SDS011;2971;52.420;7.080;2023-06-10T06:10:06;8.13;;;5.93;;
5890;SDS011;2971;52.420;7.080;2023-06-10T06:12:32;8.67;;;6.00;;
5890;SDS011;2971;52.420;7.080;2023-06-10T06:14:57;8.20;;;5.70;;
5890;SDS011;2971;52.420;7.080;2023-06-10T06:17:23;9.43;;;6.83;;
5890;SDS011;2971;52.420;7.080;2023-06-10T06:19:48;8.43;;;6.13;;
5890;SDS011;2971;52.420;7.080;2023-06-10T06:22:16;8.50;;;5.83;;
5890;SDS011;2971;52.420;7.080;2023-06-10T06:24:46;10.47;;;6.33;;
5890;SDS011;2971;52.420;7.080;2023-06-10T06:27:12;8.17;;;6.50;;
5890;SDS011;2971;52.420;7.080;2023-06-10T06:29:37;8.87;;;6.23;;
5890;SDS011;2971;52.420;7.080;2023-06-10T06:32:02;9.13;;;6.30;;
5890;SDS011;2971;52.420;7.080;2023-06-10T06:34:28;8.77;;;6.03;;
5890;SDS011;2971;52.420;7.080;2023-06-10T06:36:54;7.97;;;5.90;;
5890;SDS011;2971;52.420;7.080;2023-06-10T06:39:19;10.40;;;5.97;;
5890;SDS011;2971;52.420;7.080;2023-06-10T06:41:44;11.60;;;6.23;;
5890;SDS011;2971;52.420;7.080;2023-06-10T06:44:10;8.40;;;6.00;;
5890;SDS011;2971;52.420;7.080;2023-06-10T06:46:35;9.23;;;5.93;;
5890;SDS011;2971;52.420;7.080;2023-06-10T06:49:01;9.73;;;5.90;;
5890;SDS011;2971;52.420;7.080;2023-06-10T06:51:26;7.43;;;5.20;;
5890;SDS011;2971;52.420;7.080;2023-06-10T06:53:51;8.60;;;5.13;;
5890;SDS011;2971;52.420;7.080;2023-06-10T06:56:19;7.40;;;4.90;;
5890;SDS011;2971;52.420;7.080;2023-06-10T06:58:46;9.33;;;5.00;;
5890;SDS011;2971;52.420;7.080;2023-06-10T07:01:11;7.40;;;5.10;;
5890;SDS011;2971;52.420;7.080;2023-06-10T07:03:37;9.27;;;4.90;;
5890;SDS011;2971;52.420;7.080;2023-06-10T07:06:02;7.03;;;4.50;;
5890;SDS011;2971;52.420;7.080;2023-06-10T07:08:28;8.53;;;5.03;;
5890;SDS011;2971;52.420;7.080;2023-06-10T07:10:54;10.53;;;5.43;;
5890;SDS011;2971;52.420;7.080;2023-06-10T07:13:19;9.43;;;5.37;;
5890;SDS011;2971;52.420;7.080;2023-06-10T07:15:45;6.73;;;4.77;;
5890;SDS011;2971;52.420;7.080;2023-06-10T07:18:11;8.47;;;5.17;;
5890;SDS011;2971;52.420;7.080;2023-06-10T07:20:36;9.03;;;5.20;;
5890;SDS011;2971;52.420;7.080;2023-06-10T07:23:01;9.40;;;5.30;;
5890;SDS011;2971;52.420;7.080;2023-06-10T07:25:27;8.23;;;5.10;;
5890;SDS011;2971;52.420;7.080;2023-06-10T07:27:52;6.90;;;4.83;;
5890;SDS011;2971;52.420;7.080;2023-06-10T07:30:18;8.67;;;4.47;;
5890;SDS011;2971;52.420;7.080;2023-06-10T07:32:43;12.87;;;5.30;;
5890;SDS011;2971;52.420;7.080;2023-06-10T07:35:09;5.77;;;4.43;;
5890;SDS011;2971;52.420;7.080;2023-06-10T07:37:36;11.73;;;5.00;;
5890;SDS011;2971;52.420;7.080;2023-06-10T07:40:01;9.07;;;4.90;;
5890;SDS011;2971;52.420;7.080;2023-06-10T07:42:27;8.33;;;4.83;;
5890;SDS011;2971;52.420;7.080;2023-06-10T07:44:52;9.20;;;5.57;;
5890;SDS011;2971;52.420;7.080;2023-06-10T07:47:18;9.80;;;5.57;;
5890;SDS011;2971;52.420;7.080;2023-06-10T07:49:43;9.70;;;4.70;;
5890;SDS011;2971;52.420;7.080;2023-06-10T07:52:08;7.73;;;4.83;;
5890;SDS011;2971;52.420;7.080;2023-06-10T07:54:34;7.20;;;4.70;;
5890;SDS011;2971;52.420;7.080;2023-06-10T07:56:59;6.90;;;4.70;;
5890;SDS011;2971;52.420;7.080;2023-06-10T07:59:25;5.97;;;4.50;;
5890;SDS011;2971;52.420;7.080;2023-06-10T08:01:51;6.97;;;4.43;;
5890;SDS011;2971;52.420;7.080;2023-06-10T08:04:17;11.53;;;5.33;;
5890;SDS011;2971;52.420;7.080;2023-06-10T08:06:43;10.03;;;5.13;;
5890;SDS011;2971;52.420;7.080;2023-06-10T08:09:08;8.80;;;5.33;;
5890;SDS011;2971;52.420;7.080;2023-06-10T08:11:33;8.73;;;5.17;;
5890;SDS011;2971;52.420;7.080;2023-06-10T08:13:59;10.67;;;5.10;;
5890;SDS011;2971;52.420;7.080;2023-06-10T08:16:24;6.30;;;4.57;;
5890;SDS011;2971;52.420;7.080;2023-06-10T08:18:50;7.53;;;4.73;;
5890;SDS011;2971;52.420;7.080;2023-06-10T08:21:15;6.43;;;4.77;;
5890;SDS011;2971;52.420;7.080;2023-06-10T08:23:41;6.30;;;4.63;;
5890;SDS011;2971;52.420;7.080;2023-06-10T08:26:06;6.83;;;4.97;;
5890;SDS011;2971;52.420;7.080;2023-06-10T08:28:31;6.00;;;4.17;;
5890;SDS011;2971;52.420;7.080;2023-06-10T08:30:57;7.27;;;4.77;;
5890;SDS011;2971;52.420;7.080;2023-06-10T08:33:22;9.40;;;5.00;;
5890;SDS011;2971;52.420;7.080;2023-06-10T08:35:48;8.37;;;5.30;;
5890;SDS011;2971;52.420;7.080;2023-06-10T08:38:13;7.27;;;4.67;;
5890;SDS011;2971;52.420;7.080;2023-06-10T08:40:39;6.03;;;4.37;;
5890;SDS011;2971;52.420;7.080;2023-06-10T08:43:05;9.93;;;4.90;;
5890;SDS011;2971;52.420;7.080;2023-06-10T08:45:31;6.40;;;4.50;;
5890;SDS011;2971;52.420;7.080;2023-06-10T08:48:05;6.60;;;4.70;;
5890;SDS011;2971;52.420;7.080;2023-06-10T08:50:34;9.80;;;4.70;;
5890;SDS011;2971;52.420;7.080;2023-06-10T08:53:04;6.47;;;4.27;;
5890;SDS011;2971;52.420;7.080;2023-06-10T08:55:32;8.53;;;4.60;;
5890;SDS011;2971;52.420;7.080;2023-06-10T08:58:01;8.83;;;4.70;;
5890;SDS011;2971;52.420;7.080;2023-06-10T09:00:27;7.60;;;5.03;;
5890;SDS011;2971;52.420;7.080;2023-06-10T09:02:55;9.57;;;5.23;;
5890;SDS011;2971;52.420;7.080;2023-06-10T09:05:21;7.40;;;4.73;;
5890;SDS011;2971;52.420;7.080;2023-06-10T09:07:47;7.40;;;5.00;;
5890;SDS011;2971;52.420;7.080;2023-06-10T09:10:13;7.10;;;4.70;;
5890;SDS011;2971;52.420;7.080;2023-06-10T09:12:39;6.90;;;4.80;;
5890;SDS011;2971;52.420;7.080;2023-06-10T09:15:04;5.87;;;4.70;;
5890;SDS011;2971;52.420;7.080;2023-06-10T09:17:31;8.57;;;4.63;;
5890;SDS011;2971;52.420;7.080;2023-06-10T09:19:57;9.40;;;4.97;;
5890;SDS011;2971;52.420;7.080;2023-06-10T09:22:23;6.43;;;4.87;;
5890;SDS011;2971;52.420;7.080;2023-06-10T09:24:49;6.37;;;4.90;;
5890;SDS011;2971;52.420;7.080;2023-06-10T09:27:14;8.30;;;5.53;;
5890;SDS011;2971;52.420;7.080;2023-06-10T09:29:53;6.97;;;5.30;;
5890;SDS011;2971;52.420;7.080;2023-06-10T09:32:20;6.87;;;4.83;;
5890;SDS011;2971;52.420;7.080;2023-06-10T09:34:46;9.00;;;4.87;;
5890;SDS011;2971;52.420;7.080;2023-06-10T09:37:14;6.75;;;5.10;;
5890;SDS011;2971;52.420;7.080;2023-06-10T09:39:46;5.50;;;5.00;;
5890;SDS011;2971;52.420;7.080;2023-06-10T09:42:26;5.18;;;4.65;;
5890;SDS011;2971;52.420;7.080;2023-06-10T09:44:52;7.00;;;4.55;;
5890;SDS011;2971;52.420;7.080;2023-06-10T09:47:21;5.88;;;4.68;;
5890;SDS011;2971;52.420;7.080;2023-06-10T09:49:47;6.15;;;4.78;;
5890;SDS011;2971;52.420;7.080;2023-06-10T09:52:36;6.43;;;4.80;;
5890;SDS011;2971;52.420;7.080;2023-06-10T09:55:02;5.22;;;4.72;;
5890;SDS011;2971;52.420;7.080;2023-06-10T09:57:31;7.97;;;4.53;;
5890;SDS011;2971;52.420;7.080;2023-06-10T10:00:04;6.20;;;4.47;;
5890;SDS011;2971;52.420;7.080;2023-06-10T10:05:14;7.63;;;5.05;;
5890;SDS011;2971;52.420;7.080;2023-06-10T10:07:40;7.10;;;4.80;;
5890;SDS011;2971;52.420;7.080;2023-06-10T10:10:06;7.50;;;4.55;;
5890;SDS011;2971;52.420;7.080;2023-06-10T10:12:33;7.93;;;5.15;;
5890;SDS011;2971;52.420;7.080;2023-06-10T10:14:59;6.18;;;4.80;;
5890;SDS011;2971;52.420;7.080;2023-06-10T10:17:25;6.47;;;4.80;;
5890;SDS011;2971;52.420;7.080;2023-06-10T10:19:53;8.63;;;5.00;;
5890;SDS011;2971;52.420;7.080;2023-06-10T10:22:25;7.50;;;4.68;;
5890;SDS011;2971;52.420;7.080;2023-06-10T10:24:59;6.78;;;5.30;;
5890;SDS011;2971;52.420;7.080;2023-06-10T10:27:28;7.50;;;5.00;;
5890;SDS011;2971;52.420;7.080;2023-06-10T10:29:55;6.95;;;5.13;;
5890;SDS011;2971;52.420;7.080;2023-06-10T10:32:29;8.32;;;4.65;;
5890;SDS011;2971;52.420;7.080;2023-06-10T10:35:40;8.27;;;4.85;;
5890;SDS011;2971;52.420;7.080;2023-06-10T10:37:48;9.40;;;5.13;;
5890;SDS011;2971;52.420;7.080;2023-06-10T10:40:14;5.85;;;4.85;;
5890;SDS011;2971;52.420;7.080;2023-06-10T10:42:40;5.93;;;4.72;;
5890;SDS011;2971;52.420;7.080;2023-06-10T10:45:06;7.55;;;5.32;;
5890;SDS011;2971;52.420;7.080;2023-06-10T10:47:32;7.88;;;5.38;;
5890;SDS011;2971;52.420;7.080;2023-06-10T10:49:58;5.60;;;4.32;;
5890;SDS011;2971;52.420;7.080;2023-06-10T10:52:24;6.32;;;4.60;;
5890;SDS011;2971;52.420;7.080;2023-06-10T10:54:49;11.23;;;5.28;;
5890;SDS011;2971;52.420;7.080;2023-06-10T10:57:18;6.15;;;4.80;;
5890;SDS011;2971;52.420;7.080;2023-06-10T11:02:17;6.40;;;4.65;;
5890;SDS011;2971;52.420;7.080;2023-06-10T11:05:04;4.90;;;4.40;;
5890;SDS011;2971;52.420;7.080;2023-06-10T11:07:31;9.57;;;4.85;;
5890;SDS011;2971;52.420;7.080;2023-06-10T11:12:23;8.07;;;4.68;;
5890;SDS011;2971;52.420;7.080;2023-06-10T11:14:53;5.28;;;4.38;;
5890;SDS011;2971;52.420;7.080;2023-06-10T11:17:20;6.22;;;4.45;;
5890;SDS011;2971;52.420;7.080;2023-06-10T11:19:45;7.18;;;4.90;;
5890;SDS011;2971;52.420;7.080;2023-06-10T11:22:16;5.47;;;4.25;;
5890;SDS011;2971;52.420;7.080;2023-06-10T11:24:46;7.43;;;4.90;;
5890;SDS011;2971;52.420;7.080;2023-06-10T11:27:19;5.47;;;4.57;;
5890;SDS011;2971;52.420;7.080;2023-06-10T11:32:20;5.03;;;4.53;;
5890;SDS011;2971;52.420;7.080;2023-06-10T11:34:51;6.88;;;4.70;;
5890;SDS011;2971;52.420;7.080;2023-06-10T11:37:17;5.07;;;4.60;;
5890;SDS011;2971;52.420;7.080;2023-06-10T11:39:43;5.05;;;4.35;;
5890;SDS011;2971;52.420;7.080;2023-06-10T11:42:09;5.00;;;4.28;;
5890;SDS011;2971;52.420;7.080;2023-06-10T11:44:34;4.97;;;4.40;;
5890;SDS011;2971;52.420;7.080;2023-06-10T11:47:02;6.05;;;4.43;;
5890;SDS011;2971;52.420;7.080;2023-06-10T11:49:29;6.63;;;5.25;;
5890;SDS011;2971;52.420;7.080;2023-06-10T11:51:54;5.68;;;4.60;;
5890;SDS011;2971;52.420;7.080;2023-06-10T11:54:21;7.28;;;4.70;;
5890;SDS011;2971;52.420;7.080;2023-06-10T11:56:47;8.73;;;5.00;;
5890;SDS011;2971;52.420;7.080;2023-06-10T11:59:13;5.22;;;4.40;;
5890;SDS011;2971;52.420;7.080;2023-06-10T12:01:42;4.93;;;4.40;;
5890;SDS011;2971;52.420;7.080;2023-06-10T12:04:10;5.43;;;4.13;;
5890;SDS011;2971;52.420;7.080;2023-06-10T12:09:12;7.05;;;4.03;;
5890;SDS011;2971;52.420;7.080;2023-06-10T12:11:40;6.13;;;4.18;;
5890;SDS011;2971;52.420;7.080;2023-06-10T12:14:08;6.00;;;4.70;;
5890;SDS011;2971;52.420;7.080;2023-06-10T12:16:34;5.22;;;3.95;;
5890;SDS011;2971;52.420;7.080;2023-06-10T12:19:03;5.07;;;4.53;;
5890;SDS011;2971;52.420;7.080;2023-06-10T12:21:29;4.97;;;4.47;;
5890;SDS011;2971;52.420;7.080;2023-06-10T12:31:57;5.38;;;4.25;;
5890;SDS011;2971;52.420;7.080;2023-06-10T12:34:37;5.47;;;3.95;;
5890;SDS011;2971;52.420;7.080;2023-06-10T12:37:04;6.07;;;4.47;;
5890;SDS011;2971;52.420;7.080;2023-06-10T12:39:31;5.30;;;4.32;;
5890;SDS011;2971;52.420;7.080;2023-06-10T12:41:58;4.53;;;4.13;;
5890;SDS011;2971;52.420;7.080;2023-06-10T12:44:30;4.50;;;4.10;;
5890;SDS011;2971;52.420;7.080;2023-06-10T12:46:59;4.40;;;4.00;;
5890;SDS011;2971;52.420;7.080;2023-06-10T12:49:25;5.95;;;4.78;;
5890;SDS011;2971;52.420;7.080;2023-06-10T12:51:51;5.18;;;4.68;;
5890;SDS011;2971;52.420;7.080;2023-06-10T12:54:17;5.03;;;4.10;;
5890;SDS011;2971;52.420;7.080;2023-06-10T12:56:42;5.03;;;4.30;;
5890;SDS011;2971;52.420;7.080;2023-06-10T12:59:07;5.25;;;4.18;;
5890;SDS011;2971;52.420;7.080;2023-06-10T13:01:33;4.68;;;3.97;;
5890;SDS011;2971;52.420;7.080;2023-06-10T13:03:58;5.40;;;4.13;;
5890;SDS011;2971;52.420;7.080;2023-06-10T13:06:24;4.90;;;4.40;;
5890;SDS011;2971;52.420;7.080;2023-06-10T13:08:50;5.57;;;4.28;;
5890;SDS011;2971;52.420;7.080;2023-06-10T13:11:16;5.00;;;4.45;;
5890;SDS011;2971;52.420;7.080;2023-06-10T13:13:41;5.28;;;4.45;;
5890;SDS011;2971;52.420;7.080;2023-06-10T13:16:07;4.70;;;4.30;;
5890;SDS011;2971;52.420;7.080;2023-06-10T13:18:33;4.70;;;4.30;;
5890;SDS011;2971;52.420;7.080;2023-06-10T13:21:05;6.97;;;4.70;;
5890;SDS011;2971;52.420;7.080;2023-06-10T13:23:31;5.70;;;4.20;;
5890;SDS011;2971;52.420;7.080;2023-06-10T13:25:56;4.78;;;3.97;;
5890;SDS011;2971;52.420;7.080;2023-06-10T13:28:22;4.78;;;4.30;;
5890;SDS011;2971;52.420;7.080;2023-06-10T13:30:47;5.45;;;4.35;;
5890;SDS011;2971;52.420;7.080;2023-06-10T13:33:13;4.88;;;4.10;;
5890;SDS011;2971;52.420;7.080;2023-06-10T13:35:38;4.72;;;4.32;;
5890;SDS011;2971;52.420;7.080;2023-06-10T13:38:04;4.95;;;4.38;;
5890;SDS011;2971;52.420;7.080;2023-06-10T13:40:29;4.43;;;3.85;;
5890;SDS011;2971;52.420;7.080;2023-06-10T13:42:55;4.70;;;4.30;;
5890;SDS011;2971;52.420;7.080;2023-06-10T13:45:20;4.97;;;4.47;;
5890;SDS011;2971;52.420;7.080;2023-06-10T13:47:46;5.82;;;4.35;;
5890;SDS011;2971;52.420;7.080;2023-06-10T13:50:11;5.72;;;4.72;;
5890;SDS011;2971;52.420;7.080;2023-06-10T13:52:38;4.38;;;3.97;;
5890;SDS011;2971;52.420;7.080;2023-06-10T13:55:03;6.68;;;4.30;;
5890;SDS011;2971;52.420;7.080;2023-06-10T13:57:29;5.13;;;4.18;;
5890;SDS011;2971;52.420;7.080;2023-06-10T13:59:55;5.10;;;4.60;;
5890;SDS011;2971;52.420;7.080;2023-06-10T14:02:21;5.30;;;4.80;;
5890;SDS011;2971;52.420;7.080;2023-06-10T14:04:47;6.30;;;5.15;;
5890;SDS011;2971;52.420;7.080;2023-06-10T14:07:12;5.93;;;4.80;;
5890;SDS011;2971;52.420;7.080;2023-06-10T14:09:38;7.55;;;4.82;;
5890;SDS011;2971;52.420;7.080;2023-06-10T14:12:03;5.82;;;4.65;;
5890;SDS011;2971;52.420;7.080;2023-06-10T14:14:30;6.07;;;4.65;;
5890;SDS011;2971;52.420;7.080;2023-06-10T14:16:56;4.82;;;4.43;;
5890;SDS011;2971;52.420;7.080;2023-06-10T14:19:21;5.68;;;4.40;;
5890;SDS011;2971;52.420;7.080;2023-06-10T14:21:47;5.80;;;4.88;;
5890;SDS011;2971;52.420;7.080;2023-06-10T14:24:14;5.32;;;4.65;;
5890;SDS011;2971;52.420;7.080;2023-06-10T14:26:40;6.15;;;4.82;;
5890;SDS011;2971;52.420;7.080;2023-06-10T14:29:06;4.90;;;4.43;;
5890;SDS011;2971;52.420;7.080;2023-06-10T14:31:32;6.53;;;4.40;;
5890;SDS011;2971;52.420;7.080;2023-06-10T14:33:59;8.32;;;5.00;;
5890;SDS011;2971;52.420;7.080;2023-06-10T14:36:25;5.55;;;4.55;;
5890;SDS011;2971;52.420;7.080;2023-06-10T14:38:50;5.97;;;4.88;;
5890;SDS011;2971;52.420;7.080;2023-06-10T14:41:16;5.30;;;4.65;;
5890;SDS011;2971;52.420;7.080;2023-06-10T14:43:42;5.25;;;4.65;;
5890;SDS011;2971;52.420;7.080;2023-06-10T14:46:07;5.60;;;5.10;;
5890;SDS011;2971;52.420;7.080;2023-06-10T14:48:32;4.78;;;4.38;;
5890;SDS011;2971;52.420;7.080;2023-06-10T14:50:58;5.28;;;4.50;;
5890;SDS011;2971;52.420;7.080;2023-06-10T14:53:27;7.00;;;4.72;;
5890;SDS011;2971;52.420;7.080;2023-06-10T14:55:52;5.93;;;4.68;;
5890;SDS011;2971;52.420;7.080;2023-06-10T14:58:18;6.18;;;4.43;;
5890;SDS011;2971;52.420;7.080;2023-06-10T15:00:43;4.75;;;4.40;;
5890;SDS011;2971;52.420;7.080;2023-06-10T15:03:09;5.20;;;4.68;;
5890;SDS011;2971;52.420;7.080;2023-06-10T15:05:34;5.55;;;5.00;;
5890;SDS011;2971;52.420;7.080;2023-06-10T15:08:01;5.60;;;4.50;;
5890;SDS011;2971;52.420;7.080;2023-06-10T15:10:27;5.43;;;4.78;;
5890;SDS011;2971;52.420;7.080;2023-06-10T15:12:52;5.85;;;4.68;;
5890;SDS011;2971;52.420;7.080;2023-06-10T15:15:21;5.07;;;4.57;;
5890;SDS011;2971;52.420;7.080;2023-06-10T15:17:47;5.00;;;4.55;;
5890;SDS011;2971;52.420;7.080;2023-06-10T15:20:12;5.65;;;4.90;;
5890;SDS011;2971;52.420;7.080;2023-06-10T15:22:38;5.53;;;4.78;;
5890;SDS011;2971;52.420;7.080;2023-06-10T15:25:04;6.20;;;4.30;;
5890;SDS011;2971;52.420;7.080;2023-06-10T15:27:29;4.95;;;4.55;;
5890;SDS011;2971;52.420;7.080;2023-06-10T15:29:55;5.07;;;4.57;;
5890;SDS011;2971;52.420;7.080;2023-06-10T15:32:20;5.60;;;5.10;;